CheckWX is a tool to help pilots better visualize weather data.  It is not intended as a substitute for an official pre-flight weather briefing.

20:50:18 UTC

KP53 METAR
Munising Lakeshore Observation Airport
Michigan, USA
Current

54 mins ago

KP53 201956Z AUTO 16007KT 18/M07 A2979 RMK AO1 SLP091 T01781067
Observed
Apr-20 @ 19:56 UTC
Wind
  • 160° at 7 KTS
Visibility
Temperature
18°C / 64°F
Dewpoint
-7°C / 19°F
Humidity
18%
Altimeter
29.79" Hg
Pressure
1008.82 hPa
Previous

2 hours ago

KP53 201856Z AUTO VRB05KT 17/M08 A2982 RMK AO1 SLP102 T01721083
Observed
Apr-20 @ 18:56 UTC
Wind
  • Variable at 5 KTS
Visibility
Temperature
17°C / 63°F
Dewpoint
-8°C / 18°F
Humidity
17%
Altimeter
29.82" Hg
Pressure
1009.82 hPa
Previous

3 hours ago

KP53 201756Z AUTO 16007KT 16/M07 A2985 RMK AO1 SLP111 T01611072 10167 20033 58017
Observed
Apr-20 @ 17:56 UTC
Wind
  • 160° at 7 KTS
Visibility
Temperature
16°C / 61°F
Dewpoint
-7°C / 19°F
Humidity
20%
Altimeter
29.85" Hg
Pressure
1010.82 hPa